sensor_id;sensor_type;location;lat;lon;timestamp;pressure;altitude;pressure_sealevel;temperature
69785;BMP280;14177;51.520;6.764;2023-07-31T00:00:07;100805.91;;;16.51
69785;BMP280;14177;51.520;6.764;2023-07-31T00:02:36;100803.72;;;16.59
69785;BMP280;14177;51.520;6.764;2023-07-31T00:05:04;100815.38;;;16.69
69785;BMP280;14177;51.520;6.764;2023-07-31T00:07:32;100810.75;;;16.74
69785;BMP280;14177;51.520;6.764;2023-07-31T00:09:59;100814.69;;;16.81
69785;BMP280;14177;51.520;6.764;2023-07-31T00:12:26;100814.50;;;16.84
69785;BMP280;14177;51.520;6.764;2023-07-31T00:14:53;100807.41;;;16.86
69785;BMP280;14177;51.520;6.764;2023-07-31T00:17:20;100803.84;;;16.87
69785;BMP280;14177;51.520;6.764;2023-07-31T00:19:47;100807.50;;;16.85
69785;BMP280;14177;51.520;6.764;2023-07-31T00:22:17;100809.53;;;16.80
69785;BMP280;14177;51.520;6.764;2023-07-31T00:24:44;100795.72;;;16.76
69785;BMP280;14177;51.520;6.764;2023-07-31T00:27:11;100804.56;;;16.75
69785;BMP280;14177;51.520;6.764;2023-07-31T00:29:38;100801.06;;;16.75
69785;BMP280;14177;51.520;6.764;2023-07-31T00:32:05;100799.31;;;16.75
69785;BMP280;14177;51.520;6.764;2023-07-31T00:34:33;100807.91;;;16.77
69785;BMP280;14177;51.520;6.764;2023-07-31T00:36:59;100806.97;;;16.78
69785;BMP280;14177;51.520;6.764;2023-07-31T00:39:27;100804.28;;;16.80
69785;BMP280;14177;51.520;6.764;2023-07-31T00:41:54;100805.06;;;16.82
69785;BMP280;14177;51.520;6.764;2023-07-31T00:44:20;100808.44;;;16.84
69785;BMP280;14177;51.520;6.764;2023-07-31T00:46:48;100809.09;;;16.87
69785;BMP280;14177;51.520;6.764;2023-07-31T00:49:16;100810.78;;;16.88
69785;BMP280;14177;51.520;6.764;2023-07-31T00:51:43;100805.53;;;16.88
69785;BMP280;14177;51.520;6.764;2023-07-31T00:54:11;100804.72;;;16.88
69785;BMP280;14177;51.520;6.764;2023-07-31T00:56:40;100817.66;;;16.91
69785;BMP280;14177;51.520;6.764;2023-07-31T00:59:07;100809.78;;;16.91
69785;BMP280;14177;51.520;6.764;2023-07-31T01:01:34;100802.75;;;16.91
69785;BMP280;14177;51.520;6.764;2023-07-31T01:04:03;100798.25;;;16.93
69785;BMP280;14177;51.520;6.764;2023-07-31T01:07:27;100801.66;;;16.95
69785;BMP280;14177;51.520;6.764;2023-07-31T01:10:13;100790.97;;;16.98
69785;BMP280;14177;51.520;6.764;2023-07-31T01:12:45;100788.34;;;16.98
69785;BMP280;14177;51.520;6.764;2023-07-31T01:15:13;100789.09;;;17.00
69785;BMP280;14177;51.520;6.764;2023-07-31T01:17:43;100803.91;;;17.01
69785;BMP280;14177;51.520;6.764;2023-07-31T01:20:23;100788.28;;;17.00
69785;BMP280;14177;51.520;6.764;2023-07-31T01:26:25;100798.50;;;17.04
69785;BMP280;14177;51.520;6.764;2023-07-31T01:29:27;100794.00;;;17.06
69785;BMP280;14177;51.520;6.764;2023-07-31T01:32:01;100786.13;;;17.06
69785;BMP280;14177;51.520;6.764;2023-07-31T01:34:31;100783.50;;;17.06
69785;BMP280;14177;51.520;6.764;2023-07-31T01:36:59;100783.34;;;17.09
69785;BMP280;14177;51.520;6.764;2023-07-31T01:39:26;100787.84;;;17.07
69785;BMP280;14177;51.520;6.764;2023-07-31T01:41:53;100778.09;;;17.09
69785;BMP280;14177;51.520;6.764;2023-07-31T01:44:20;100793.75;;;17.10
69785;BMP280;14177;51.520;6.764;2023-07-31T01:46:47;100785.03;;;17.10
69785;BMP280;14177;51.520;6.764;2023-07-31T01:49:14;100786.13;;;17.06
69785;BMP280;14177;51.520;6.764;2023-07-31T01:51:41;100778.84;;;17.11
69785;BMP280;14177;51.520;6.764;2023-07-31T01:54:08;100779.59;;;17.13
69785;BMP280;14177;51.520;6.764;2023-07-31T01:56:35;100784.09;;;17.11
69785;BMP280;14177;51.520;6.764;2023-07-31T01:59:03;100775.41;;;17.10
69785;BMP280;14177;51.520;6.764;2023-07-31T02:01:30;100764.97;;;17.09
69785;BMP280;14177;51.520;6.764;2023-07-31T02:03:58;100785.03;;;17.10
69785;BMP280;14177;51.520;6.764;2023-07-31T02:06:25;100775.63;;;17.06
69785;BMP280;14177;51.520;6.764;2023-07-31T02:08:52;100786.91;;;17.08
69785;BMP280;14177;51.520;6.764;2023-07-31T02:11:19;100769.28;;;17.10
69785;BMP280;14177;51.520;6.764;2023-07-31T02:13:49;100777.91;;;17.12
69785;BMP280;14177;51.520;6.764;2023-07-31T02:16:16;100773.50;;;17.12
69785;BMP280;14177;51.520;6.764;2023-07-31T02:18:43;100769.22;;;17.11
69785;BMP280;14177;51.520;6.764;2023-07-31T02:21:10;100771.84;;;17.11
69785;BMP280;14177;51.520;6.764;2023-07-31T02:23:37;100761.34;;;17.11
69785;BMP280;14177;51.520;6.764;2023-07-31T02:26:05;100763.09;;;17.11
69785;BMP280;14177;51.520;6.764;2023-07-31T02:28:32;100765.72;;;17.11
69785;BMP280;14177;51.520;6.764;2023-07-31T02:30:59;100755.22;;;17.11
69785;BMP280;14177;51.520;6.764;2023-07-31T02:33:26;100753.34;;;17.13
69785;BMP280;14177;51.520;6.764;2023-07-31T02:35:54;100763.88;;;17.13
69785;BMP280;14177;51.520;6.764;2023-07-31T02:38:21;100751.50;;;17.15
69785;BMP280;14177;51.520;6.764;2023-07-31T02:40:48;100756.75;;;17.15
69785;BMP280;14177;51.520;6.764;2023-07-31T02:43:16;100754.19;;;17.13
69785;BMP280;14177;51.520;6.764;2023-07-31T02:45:43;100749.88;;;17.12
69785;BMP280;14177;51.520;6.764;2023-07-31T02:48:10;100760.47;;;17.11
69785;BMP280;14177;51.520;6.764;2023-07-31T02:50:37;100758.63;;;17.13
69785;BMP280;14177;51.520;6.764;2023-07-31T02:53:04;100758.63;;;17.13
69785;BMP280;14177;51.520;6.764;2023-07-31T02:55:31;100755.06;;;17.14
69785;BMP280;14177;51.520;6.764;2023-07-31T02:57:58;100751.66;;;17.12
69785;BMP280;14177;51.520;6.764;2023-07-31T03:00:25;100758.63;;;17.13
69785;BMP280;14177;51.520;6.764;2023-07-31T03:02:52;100745.50;;;17.13
69785;BMP280;14177;51.520;6.764;2023-07-31T03:05:20;100744.72;;;17.11
69785;BMP280;14177;51.520;6.764;2023-07-31T03:07:47;100738.72;;;17.09
69785;BMP280;14177;51.520;6.764;2023-07-31T03:10:14;100749.31;;;17.08
69785;BMP280;14177;51.520;6.764;2023-07-31T03:12:41;100739.66;;;17.08
69785;BMP280;14177;51.520;6.764;2023-07-31T03:15:10;100747.47;;;17.09
69785;BMP280;14177;51.520;6.764;2023-07-31T03:17:37;100730.84;;;17.09
69785;BMP280;14177;51.520;6.764;2023-07-31T03:20:04;100736.97;;;17.09
69785;BMP280;14177;51.520;6.764;2023-07-31T03:22:31;100745.66;;;17.10
69785;BMP280;14177;51.520;6.764;2023-07-31T03:24:58;100734.22;;;17.11
69785;BMP280;14177;51.520;6.764;2023-07-31T03:27:25;100743.78;;;17.12
69785;BMP280;14177;51.520;6.764;2023-07-31T03:29:52;100728.81;;;17.14
69785;BMP280;14177;51.520;6.764;2023-07-31T03:32:19;100736.56;;;17.15
69785;BMP280;14177;51.520;6.764;2023-07-31T03:34:46;100746.06;;;17.18
69785;BMP280;14177;51.520;6.764;2023-07-31T03:37:13;100740.72;;;17.19
69785;BMP280;14177;51.520;6.764;2023-07-31T03:39:40;100731.84;;;17.22
69785;BMP280;14177;51.520;6.764;2023-07-31T03:42:07;100731.84;;;17.22
69785;BMP280;14177;51.520;6.764;2023-07-31T03:44:34;100735.22;;;17.24
69785;BMP280;14177;51.520;6.764;2023-07-31T03:47:01;100738.59;;;17.26
69785;BMP280;14177;51.520;6.764;2023-07-31T03:49:29;100726.22;;;17.28
69785;BMP280;14177;51.520;6.764;2023-07-31T03:51:56;100724.34;;;17.30
69785;BMP280;14177;51.520;6.764;2023-07-31T03:54:23;100725.72;;;17.37
69785;BMP280;14177;51.520;6.764;2023-07-31T03:56:50;100724.66;;;17.39
69785;BMP280;14177;51.520;6.764;2023-07-31T03:59:17;100720.28;;;17.40
69785;BMP280;14177;51.520;6.764;2023-07-31T04:01:44;100729.94;;;17.39
69785;BMP280;14177;51.520;6.764;2023-07-31T04:04:10;100717.47;;;17.43
69785;BMP280;14177;51.520;6.764;2023-07-31T04:06:37;100728.91;;;17.42
69785;BMP280;14177;51.520;6.764;2023-07-31T04:09:04;100719.25;;;17.42
69785;BMP280;14177;51.520;6.764;2023-07-31T04:11:31;100714.09;;;17.41
69785;BMP280;14177;51.520;6.764;2023-07-31T04:13:58;100711.47;;;17.41
69785;BMP280;14177;51.520;6.764;2023-07-31T04:16:25;100705.09;;;17.45
69785;BMP280;14177;51.520;6.764;2023-07-31T04:18:52;100702.47;;;17.45
69785;BMP280;14177;51.520;6.764;2023-07-31T04:21:19;100701.63;;;17.44
69785;BMP280;14177;51.520;6.764;2023-07-31T04:23:46;100707.53;;;17.48
69785;BMP280;14177;51.520;6.764;2023-07-31T04:26:13;100702.28;;;17.48
69785;BMP280;14177;51.520;6.764;2023-07-31T04:28:40;100699.44;;;17.51
69785;BMP280;14177;51.520;6.764;2023-07-31T04:31:07;100692.13;;;17.56
69785;BMP280;14177;51.520;6.764;2023-07-31T04:33:34;100698.16;;;17.58
69785;BMP280;14177;51.520;6.764;2023-07-31T04:36:01;100689.34;;;17.59
69785;BMP280;14177;51.520;6.764;2023-07-31T04:38:28;100699.75;;;17.60
69785;BMP280;14177;51.520;6.764;2023-07-31T04:40:55;100695.34;;;17.61
69785;BMP280;14177;51.520;6.764;2023-07-31T04:43:22;100689.16;;;17.62
69785;BMP280;14177;51.520;6.764;2023-07-31T04:45:49;100685.69;;;17.61
69785;BMP280;14177;51.520;6.764;2023-07-31T04:48:17;100686.34;;;17.65
69785;BMP280;14177;51.520;6.764;2023-07-31T04:50:43;100695.06;;;17.65
69785;BMP280;14177;51.520;6.764;2023-07-31T04:53:10;100688.88;;;17.66
69785;BMP280;14177;51.520;6.764;2023-07-31T04:55:37;100678.06;;;17.71
69785;BMP280;14177;51.520;6.764;2023-07-31T04:58:05;100675.38;;;17.72
69785;BMP280;14177;51.520;6.764;2023-07-31T05:00:32;100683.06;;;17.75
69785;BMP280;14177;51.520;6.764;2023-07-31T05:02:59;100678.56;;;17.77
69785;BMP280;14177;51.520;6.764;2023-07-31T05:05:26;100666.06;;;17.81
69785;BMP280;14177;51.520;6.764;2023-07-31T05:07:53;100666.81;;;17.83
69785;BMP280;14177;51.520;6.764;2023-07-31T05:10:20;100660.75;;;17.82
69785;BMP280;14177;51.520;6.764;2023-07-31T05:12:47;100666.00;;;17.82
69785;BMP280;14177;51.520;6.764;2023-07-31T05:15:14;100658.94;;;17.83
69785;BMP280;14177;51.520;6.764;2023-07-31T05:17:42;100667.75;;;17.82
69785;BMP280;14177;51.520;6.764;2023-07-31T05:20:09;100657.16;;;17.83
69785;BMP280;14177;51.520;6.764;2023-07-31T05:22:37;100658.94;;;17.83
69785;BMP280;14177;51.520;6.764;2023-07-31T05:25:04;100665.13;;;17.82
69785;BMP280;14177;51.520;6.764;2023-07-31T05:27:32;100661.75;;;17.80
69785;BMP280;14177;51.520;6.764;2023-07-31T05:29:59;100661.88;;;17.78
69785;BMP280;14177;51.520;6.764;2023-07-31T05:32:26;100656.69;;;17.77
69785;BMP280;14177;51.520;6.764;2023-07-31T05:34:53;100663.81;;;17.75
69785;BMP280;14177;51.520;6.764;2023-07-31T05:37:22;100667.38;;;17.74
69785;BMP280;14177;51.520;6.764;2023-07-31T05:39:49;100655.09;;;17.74
69785;BMP280;14177;51.520;6.764;2023-07-31T05:42:16;100649.94;;;17.73
69785;BMP280;14177;51.520;6.764;2023-07-31T05:44:43;100647.41;;;17.71
69785;BMP280;14177;51.520;6.764;2023-07-31T05:47:10;100642.16;;;17.71
69785;BMP280;14177;51.520;6.764;2023-07-31T05:49:37;100643.00;;;17.72
69785;BMP280;14177;51.520;6.764;2023-07-31T05:52:04;100637.56;;;17.75
69785;BMP280;14177;51.520;6.764;2023-07-31T05:54:32;100628.53;;;17.79
69785;BMP280;14177;51.520;6.764;2023-07-31T05:56:59;100628.47;;;17.80
69785;BMP280;14177;51.520;6.764;2023-07-31T05:59:26;100627.53;;;17.81
69785;BMP280;14177;51.520;6.764;2023-07-31T06:01:53;100626.66;;;17.81
69785;BMP280;14177;51.520;6.764;2023-07-31T06:04:20;100612.59;;;17.82
69785;BMP280;14177;51.520;6.764;2023-07-31T06:06:51;100619.72;;;17.80
69785;BMP280;14177;51.520;6.764;2023-07-31T06:09:18;100618.03;;;17.79
69785;BMP280;14177;51.520;6.764;2023-07-31T06:11:47;100617.28;;;17.77
69785;BMP280;14177;51.520;6.764;2023-07-31T06:14:14;100616.53;;;17.75
69785;BMP280;14177;51.520;6.764;2023-07-31T06:16:41;100613.16;;;17.73
69785;BMP280;14177;51.520;6.764;2023-07-31T06:19:08;100609.78;;;17.71
69785;BMP280;14177;51.520;6.764;2023-07-31T06:21:35;100619.53;;;17.69
69785;BMP280;14177;51.520;6.764;2023-07-31T06:24:05;100621.22;;;17.70
69785;BMP280;14177;51.520;6.764;2023-07-31T06:26:32;100616.72;;;17.72
69785;BMP280;14177;51.520;6.764;2023-07-31T06:28:59;100621.97;;;17.72
69785;BMP280;14177;51.520;6.764;2023-07-31T06:31:26;100619.47;;;17.70
69785;BMP280;14177;51.520;6.764;2023-07-31T06:33:54;100618.72;;;17.68
69785;BMP280;14177;51.520;6.764;2023-07-31T06:36:21;100616.91;;;17.69
69785;BMP280;14177;51.520;6.764;2023-07-31T06:38:48;100608.09;;;17.70
69785;BMP280;14177;51.520;6.764;2023-07-31T06:41:15;100607.34;;;17.68
69785;BMP280;14177;51.520;6.764;2023-07-31T06:43:42;100607.34;;;17.68
69785;BMP280;14177;51.520;6.764;2023-07-31T06:46:09;100619.72;;;17.66
69785;BMP280;14177;51.520;6.764;2023-07-31T06:48:37;100613.53;;;17.67
69785;BMP280;14177;51.520;6.764;2023-07-31T06:51:04;100615.41;;;17.65
69785;BMP280;14177;51.520;6.764;2023-07-31T06:53:31;100608.47;;;17.64
69785;BMP280;14177;51.520;6.764;2023-07-31T06:55:58;100626.09;;;17.62
69785;BMP280;14177;51.520;6.764;2023-07-31T06:58:25;100616.66;;;17.59
69785;BMP280;14177;51.520;6.764;2023-07-31T07:00:52;100601.72;;;17.60
69785;BMP280;14177;51.520;6.764;2023-07-31T07:03:19;100595.81;;;17.56
69785;BMP280;14177;51.520;6.764;2023-07-31T07:05:47;100607.66;;;17.49
69785;BMP280;14177;51.520;6.764;2023-07-31T07:08:14;100611.31;;;17.47
69785;BMP280;14177;51.520;6.764;2023-07-31T07:10:41;100608.88;;;17.44
69785;BMP280;14177;51.520;6.764;2023-07-31T07:13:08;100600.25;;;17.42
69785;BMP280;14177;51.520;6.764;2023-07-31T07:15:35;100586.38;;;17.40
69785;BMP280;14177;51.520;6.764;2023-07-31T07:18:02;100607.38;;;17.40
69785;BMP280;14177;51.520;6.764;2023-07-31T07:20:30;100588.13;;;17.39
69785;BMP280;14177;51.520;6.764;2023-07-31T07:22:57;100589.00;;;17.40
69785;BMP280;14177;51.520;6.764;2023-07-31T07:25:24;100591.69;;;17.38
69785;BMP280;14177;51.520;6.764;2023-07-31T07:27:51;100593.50;;;17.38
69785;BMP280;14177;51.520;6.764;2023-07-31T07:30:18;100594.44;;;17.37
69785;BMP280;14177;51.520;6.764;2023-07-31T07:32:45;100592.75;;;17.36
69785;BMP280;14177;51.520;6.764;2023-07-31T07:35:12;100592.75;;;17.36
69785;BMP280;14177;51.520;6.764;2023-07-31T07:37:39;100594.63;;;17.34
69785;BMP280;14177;51.520;6.764;2023-07-31T07:40:06;100587.69;;;17.33
69785;BMP280;14177;51.520;6.764;2023-07-31T07:42:34;100587.75;;;17.31
69785;BMP280;14177;51.520;6.764;2023-07-31T07:45:00;100595.72;;;17.30
69785;BMP280;14177;51.520;6.764;2023-07-31T07:47:27;100585.41;;;17.27
69785;BMP280;14177;51.520;6.764;2023-07-31T07:49:55;100587.16;;;17.26
69785;BMP280;14177;51.520;6.764;2023-07-31T07:52:22;100587.34;;;17.23
69785;BMP280;14177;51.520;6.764;2023-07-31T07:54:49;100591.78;;;17.23
69785;BMP280;14177;51.520;6.764;2023-07-31T07:57:16;100594.59;;;17.20
69785;BMP280;14177;51.520;6.764;2023-07-31T07:59:43;100585.97;;;17.18
69785;BMP280;14177;51.520;6.764;2023-07-31T08:02:11;100594.03;;;17.15
69785;BMP280;14177;51.520;6.764;2023-07-31T08:04:37;100596.00;;;17.11
69785;BMP280;14177;51.520;6.764;2023-07-31T08:07:05;100587.38;;;17.09
69785;BMP280;14177;51.520;6.764;2023-07-31T08:09:32;100579.69;;;17.07
69785;BMP280;14177;51.520;6.764;2023-07-31T08:11:59;100576.31;;;17.05
69785;BMP280;14177;51.520;6.764;2023-07-31T08:14:29;100581.75;;;17.02
69785;BMP280;14177;51.520;6.764;2023-07-31T08:17:00;100565.31;;;16.98
69785;BMP280;14177;51.520;6.764;2023-07-31T08:19:27;100563.56;;;16.99
69785;BMP280;14177;51.520;6.764;2023-07-31T08:21:54;100563.63;;;16.97
69785;BMP280;14177;51.520;6.764;2023-07-31T08:24:24;100579.13;;;17.02
69785;BMP280;14177;51.520;6.764;2023-07-31T08:26:51;100562.44;;;17.03
69785;BMP280;14177;51.520;6.764;2023-07-31T08:29:18;100561.19;;;17.08
69785;BMP280;14177;51.520;6.764;2023-07-31T08:31:45;100556.81;;;17.08
69785;BMP280;14177;51.520;6.764;2023-07-31T08:34:12;100559.03;;;17.14
69785;BMP280;14177;51.520;6.764;2023-07-31T08:36:39;100559.16;;;17.13
69785;BMP280;14177;51.520;6.764;2023-07-31T08:39:07;100561.66;;;17.14
69785;BMP280;14177;51.520;6.764;2023-07-31T08:41:40;100560.72;;;17.15
69785;BMP280;14177;51.520;6.764;2023-07-31T08:44:07;100559.91;;;17.15
69785;BMP280;14177;51.520;6.764;2023-07-31T08:46:35;100560.19;;;17.10
69785;BMP280;14177;51.520;6.764;2023-07-31T08:49:05;100566.44;;;17.08
69785;BMP280;14177;51.520;6.764;2023-07-31T08:51:34;100569.06;;;17.08
69785;BMP280;14177;51.520;6.764;2023-07-31T08:54:02;100561.03;;;17.11
69785;BMP280;14177;51.520;6.764;2023-07-31T08:56:33;100569.66;;;17.13
69785;BMP280;14177;51.520;6.764;2023-07-31T08:59:03;100573.03;;;17.15
69785;BMP280;14177;51.520;6.764;2023-07-31T09:01:42;100564.69;;;17.08
69785;BMP280;14177;51.520;6.764;2023-07-31T09:04:12;100574.72;;;17.16
69785;BMP280;14177;51.520;6.764;2023-07-31T09:06:42;100568.41;;;17.18
69785;BMP280;14177;51.520;6.764;2023-07-31T09:09:09;100570.22;;;17.18
69785;BMP280;14177;51.520;6.764;2023-07-31T09:11:36;100574.53;;;17.19
69785;BMP280;14177;51.520;6.764;2023-07-31T09:14:04;100573.66;;;17.18
69785;BMP280;14177;51.520;6.764;2023-07-31T09:16:36;100564.03;;;17.19
69785;BMP280;14177;51.520;6.764;2023-07-31T09:19:29;100573.41;;;17.23
69785;BMP280;14177;51.520;6.764;2023-07-31T09:21:56;100576.78;;;17.25
69785;BMP280;14177;51.520;6.764;2023-07-31T09:24:32;100564.59;;;17.24
69785;BMP280;14177;51.520;6.764;2023-07-31T09:27:01;100558.47;;;17.23
69785;BMP280;14177;51.520;6.764;2023-07-31T09:29:29;100550.59;;;17.23
69785;BMP280;14177;51.520;6.764;2023-07-31T09:31:57;100546.28;;;17.22
69785;BMP280;14177;51.520;6.764;2023-07-31T09:34:37;100549.78;;;17.23
69785;BMP280;14177;51.520;6.764;2023-07-31T09:37:08;100549.59;;;17.26
69785;BMP280;14177;51.520;6.764;2023-07-31T09:39:47;100543.28;;;17.28
69785;BMP280;14177;51.520;6.764;2023-07-31T09:42:24;100547.53;;;17.31
69785;BMP280;14177;51.520;6.764;2023-07-31T09:44:51;100538.56;;;17.35
69785;BMP280;14177;51.520;6.764;2023-07-31T09:47:23;100552.44;;;17.37
69785;BMP280;14177;51.520;6.764;2023-07-31T09:49:53;100539.13;;;17.40
69785;BMP280;14177;51.520;6.764;2023-07-31T09:52:20;100526.81;;;17.40
69785;BMP280;14177;51.520;6.764;2023-07-31T09:54:47;100527.47;;;17.44
69785;BMP280;14177;51.520;6.764;2023-07-31T09:57:17;100535.16;;;17.47
69785;BMP280;14177;51.520;6.764;2023-07-31T09:59:47;100541.13;;;17.49
69785;BMP280;14177;51.520;6.764;2023-07-31T10:02:21;100530.63;;;17.49
69785;BMP280;14177;51.520;6.764;2023-07-31T10:04:54;100531.31;;;17.52
69785;BMP280;14177;51.520;6.764;2023-07-31T10:07:26;100532.13;;;17.53
69785;BMP280;14177;51.520;6.764;2023-07-31T10:09:57;100534.94;;;17.50
69785;BMP280;14177;51.520;6.764;2023-07-31T10:12:30;100534.44;;;17.45
69785;BMP280;14177;51.520;6.764;2023-07-31T10:15:00;100537.78;;;17.47
69785;BMP280;14177;51.520;6.764;2023-07-31T10:17:29;100528.00;;;17.49
69785;BMP280;14177;51.520;6.764;2023-07-31T10:19:58;100525.88;;;17.55
69785;BMP280;14177;51.520;6.764;2023-07-31T10:22:31;100530.06;;;17.58
69785;BMP280;14177;51.520;6.764;2023-07-31T10:25:00;100538.69;;;17.60
69785;BMP280;14177;51.520;6.764;2023-07-31T10:27:27;100523.69;;;17.62
69785;BMP280;14177;51.520;6.764;2023-07-31T10:29:57;100534.00;;;17.65
69785;BMP280;14177;51.520;6.764;2023-07-31T10:32:26;100528.34;;;17.71
69785;BMP280;14177;51.520;6.764;2023-07-31T10:34:54;100521.75;;;17.78
69785;BMP280;14177;51.520;6.764;2023-07-31T10:42:30;100521.97;;;18.01
69785;BMP280;14177;51.520;6.764;2023-07-31T10:44:59;100514.34;;;18.11
69785;BMP280;14177;51.520;6.764;2023-07-31T10:47:26;100527.06;;;18.17
69785;BMP280;14177;51.520;6.764;2023-07-31T10:50:20;100522.16;;;18.25
69785;BMP280;14177;51.520;6.764;2023-07-31T10:52:54;100527.22;;;18.28
69785;BMP280;14177;51.520;6.764;2023-07-31T10:55:32;100521.88;;;18.29
69785;BMP280;14177;51.520;6.764;2023-07-31T10:58:11;100523.44;;;18.32
69785;BMP280;14177;51.520;6.764;2023-07-31T11:00:47;100530.38;;;18.33
69785;BMP280;14177;51.520;6.764;2023-07-31T11:03:18;100511.03;;;18.33
69785;BMP280;14177;51.520;6.764;2023-07-31T11:06:01;100521.47;;;18.35
69785;BMP280;14177;51.520;6.764;2023-07-31T11:08:33;100512.31;;;18.40
69785;BMP280;14177;51.520;6.764;2023-07-31T11:16:00;100512.03;;;18.57
69785;BMP280;14177;51.520;6.764;2023-07-31T11:18:27;100520.66;;;18.59
69785;BMP280;14177;51.520;6.764;2023-07-31T11:20:54;100517.09;;;18.60
69785;BMP280;14177;51.520;6.764;2023-07-31T11:23:22;100507.31;;;18.62
69785;BMP280;14177;51.520;6.764;2023-07-31T11:25:50;100520.34;;;18.64
69785;BMP280;14177;51.520;6.764;2023-07-31T11:28:19;100512.34;;;18.65
69785;BMP280;14177;51.520;6.764;2023-07-31T11:30:46;100503.53;;;18.66
69785;BMP280;14177;51.520;6.764;2023-07-31T11:33:14;100508.47;;;18.71
69785;BMP280;14177;51.520;6.764;2023-07-31T11:35:50;100503.31;;;18.69
69785;BMP280;14177;51.520;6.764;2023-07-31T11:38:32;100503.31;;;18.69
69785;BMP280;14177;51.520;6.764;2023-07-31T11:41:04;100512.34;;;18.65
69785;BMP280;14177;51.520;6.764;2023-07-31T11:43:32;100509.81;;;18.64
69785;BMP280;14177;51.520;6.764;2023-07-31T11:46:01;100506.16;;;18.66
69785;BMP280;14177;51.520;6.764;2023-07-31T11:48:35;100508.66;;;18.68
69785;BMP280;14177;51.520;6.764;2023-07-31T11:51:10;100512.16;;;18.68
69785;BMP280;14177;51.520;6.764;2023-07-31T11:53:50;100509.53;;;18.68
69785;BMP280;14177;51.520;6.764;2023-07-31T11:56:19;100498.25;;;18.66
69785;BMP280;14177;51.520;6.764;2023-07-31T11:58:51;100513.84;;;18.69
69785;BMP280;14177;51.520;6.764;2023-07-31T12:01:21;100512.34;;;18.65
69785;BMP280;14177;51.520;6.764;2023-07-31T12:03:50;100503.41;;;18.68
69785;BMP280;14177;51.520;6.764;2023-07-31T12:06:17;100507.63;;;18.70
69785;BMP280;14177;51.520;6.764;2023-07-31T12:08:44;100507.63;;;18.70
69785;BMP280;14177;51.520;6.764;2023-07-31T12:11:11;100509.53;;;18.68
69785;BMP280;14177;51.520;6.764;2023-07-31T12:13:38;100503.81;;;18.62
69785;BMP280;14177;51.520;6.764;2023-07-31T12:16:05;100500.56;;;18.58
69785;BMP280;14177;51.520;6.764;2023-07-31T12:18:37;100491.94;;;18.56
69785;BMP280;14177;51.520;6.764;2023-07-31T12:21:09;100501.84;;;18.53
69785;BMP280;14177;51.520;6.764;2023-07-31T12:23:38;100488.91;;;18.50
69785;BMP280;14177;51.520;6.764;2023-07-31T12:26:14;100500.16;;;18.52
69785;BMP280;14177;51.520;6.764;2023-07-31T12:28:49;100485.94;;;18.54
69785;BMP280;14177;51.520;6.764;2023-07-31T12:31:22;100479.31;;;18.61
69785;BMP280;14177;51.520;6.764;2023-07-31T12:33:51;100483.22;;;18.68
69785;BMP280;14177;51.520;6.764;2023-07-31T12:36:22;100476.59;;;18.75
69785;BMP280;14177;51.520;6.764;2023-07-31T12:38:52;100477.13;;;18.80
69785;BMP280;14177;51.520;6.764;2023-07-31T12:41:19;100474.28;;;18.83
69785;BMP280;14177;51.520;6.764;2023-07-31T12:43:46;100477.66;;;18.85
69785;BMP280;14177;51.520;6.764;2023-07-31T12:46:13;100486.16;;;18.89
69785;BMP280;14177;51.520;6.764;2023-07-31T12:48:41;100478.91;;;18.92
69785;BMP280;14177;51.520;6.764;2023-07-31T12:51:08;100479.94;;;18.90
69785;BMP280;14177;51.520;6.764;2023-07-31T12:53:35;100473.19;;;18.86
69785;BMP280;14177;51.520;6.764;2023-07-31T12:56:03;100478.59;;;18.84
69785;BMP280;14177;51.520;6.764;2023-07-31T12:58:30;100467.22;;;18.84
69785;BMP280;14177;51.520;6.764;2023-07-31T13:00:57;100465.44;;;18.84
69785;BMP280;14177;51.520;6.764;2023-07-31T13:03:24;100446.81;;;18.87
69785;BMP280;14177;51.520;6.764;2023-07-31T13:05:52;100433.44;;;18.90
69785;BMP280;14177;51.520;6.764;2023-07-31T13:08:19;100431.41;;;18.94
69785;BMP280;14177;51.520;6.764;2023-07-31T13:10:46;100427.28;;;19.02
69785;BMP280;14177;51.520;6.764;2023-07-31T13:13:13;100424.22;;;19.08
69785;BMP280;14177;51.520;6.764;2023-07-31T13:15:41;100425.69;;;19.12
69785;BMP280;14177;51.520;6.764;2023-07-31T13:18:09;100425.63;;;19.14
69785;BMP280;14177;51.520;6.764;2023-07-31T13:20:36;100417.59;;;19.15
69785;BMP280;14177;51.520;6.764;2023-07-31T13:23:03;100408.88;;;19.15
69785;BMP280;14177;51.520;6.764;2023-07-31T13:25:30;100418.00;;;19.09
69785;BMP280;14177;51.520;6.764;2023-07-31T13:27:57;100422.66;;;19.06
69785;BMP280;14177;51.520;6.764;2023-07-31T13:30:27;100405.28;;;19.03
69785;BMP280;14177;51.520;6.764;2023-07-31T13:32:54;100414.03;;;19.04
69785;BMP280;14177;51.520;6.764;2023-07-31T13:35:21;100409.38;;;19.07
69785;BMP280;14177;51.520;6.764;2023-07-31T13:37:48;100406.50;;;19.10
69785;BMP280;14177;51.520;6.764;2023-07-31T13:40:15;100395.88;;;19.12
69785;BMP280;14177;51.520;6.764;2023-07-31T13:42:42;100404.34;;;19.17
69785;BMP280;14177;51.520;6.764;2023-07-31T13:45:09;100400.41;;;19.22
69785;BMP280;14177;51.520;6.764;2023-07-31T13:47:36;100397.78;;;19.22
69785;BMP280;14177;51.520;6.764;2023-07-31T13:50:04;100407.34;;;19.23
69785;BMP280;14177;51.520;6.764;2023-07-31T13:52:31;100414.22;;;19.26
69785;BMP280;14177;51.520;6.764;2023-07-31T13:54:58;100407.88;;;19.28
69785;BMP280;14177;51.520;6.764;2023-07-31T13:57:25;100420.94;;;19.30
69785;BMP280;14177;51.520;6.764;2023-07-31T13:59:52;100402.75;;;19.38
69785;BMP280;14177;51.520;6.764;2023-07-31T14:02:19;100396.28;;;19.54
69785;BMP280;14177;51.520;6.764;2023-07-31T14:04:46;100406.81;;;19.77
69785;BMP280;14177;51.520;6.764;2023-07-31T14:07:13;100387.22;;;19.92
69785;BMP280;14177;51.520;6.764;2023-07-31T14:09:40;100390.03;;;20.02
69785;BMP280;14177;51.520;6.764;2023-07-31T14:12:07;100385.75;;;20.12
69785;BMP280;14177;51.520;6.764;2023-07-31T14:14:34;100379.38;;;20.14
69785;BMP280;14177;51.520;6.764;2023-07-31T14:17:01;100397.75;;;20.16